Time;durP1;ratioP1;P1;durP2;ratioP2;P2;SDS_P1;SDS_P2;PMS_P1;PMS_P2;Temp;Humidity;BMP_temperature;BMP_pressure;BME280_temperature;BME280_humidity;BME280_pressure;Samples;Min_cycle;Max_cycle;Signal;HPM_P1;HPM_P2
2021/10/02 00:44:52;;;;;;;;;5.33;3.00;;;;;19.90;53.87;101125.97;5037405;28;45961;-45
2021/10/02 00:47:20;;;;;;;;;3.33;3.33;;;;;19.88;54.05;101117.09;5037451;28;45784;-48
2021/10/02 00:49:47;;;;;;;;;2.00;2.00;;;;;19.89;53.86;101118.84;5037717;28;45383;-48
2021/10/02 00:52:17;;;;;;;;;3.33;3.33;;;;;19.88;53.79;101114.44;5036533;28;45344;-60
2021/10/02 00:54:43;;;;;;;;;2.67;2.00;;;;;19.88;53.78;101114.44;5037258;28;47258;-48
2021/10/02 00:57:10;;;;;;;;;3.00;3.00;;;;;19.89;53.75;101113.50;5037160;28;45602;-47
2021/10/02 00:59:37;;;;;;;;;5.33;4.67;;;;;19.89;53.76;101113.50;5037112;28;45405;-48
2021/10/02 01:02:12;;;;;;;;;5.67;5.00;;;;;19.89;54.10;101113.50;5037265;28;45426;-49
2021/10/02 01:05:09;;;;;;;;;3.67;3.67;;;;;19.89;53.76;101108.16;5036853;28;46438;-55
2021/10/02 01:07:56;;;;;;;;;4.00;3.67;;;;;19.88;53.71;101111.75;5036990;28;45254;-59
2021/10/02 01:10:44;;;;;;;;;5.00;4.33;;;;;19.87;53.85;101105.53;5037140;28;45290;-48
2021/10/02 01:13:33;;;;;;;;;5.67;4.00;;;;;19.89;53.76;101110.84;5056588;28;45411;-53
2021/10/02 01:16:25;;;;;;;;;3.00;3.00;;;;;19.88;53.72;101115.28;5058855;28;46338;-52
2021/10/02 01:19:09;;;;;;;;;4.00;3.67;;;;;19.88;53.76;101111.75;5059077;28;45354;-57
2021/10/02 01:21:38;;;;;;;;;3.00;3.00;;;;;19.86;53.85;101111.75;5059216;28;45418;-48
2021/10/02 01:24:30;;;;;;;;;5.00;4.00;;;;;19.87;53.58;101117.97;5059314;28;45249;-54
2021/10/02 01:27:08;;;;;;;;;4.00;3.00;;;;;19.86;53.58;101108.22;5058572;28;46316;-54
2021/10/02 01:29:36;;;;;;;;;3.00;2.00;;;;;19.87;53.63;101105.53;5059006;28;45333;-63
2021/10/02 01:34:40;;;;;;;;;5.67;5.00;;;;;19.86;53.83;101097.56;5059337;28;45353;-48
2021/10/02 01:48:06;;;;;;;;;4.00;4.00;;;;;19.86;53.77;101073.56;5058554;28;45315;-47
2021/10/02 01:50:36;;;;;;;;;2.00;2.00;;;;;19.85;53.81;101058.44;5058774;28;45334;-46
2021/10/02 01:53:04;;;;;;;;;4.00;4.00;;;;;19.86;53.62;101060.22;5058770;28;45216;-45
2021/10/02 01:55:31;;;;;;;;;5.00;4.00;;;;;19.86;53.54;101065.56;5058819;28;45466;-61
2021/10/02 01:58:00;;;;;;;;;4.67;3.33;;;;;19.84;53.73;101059.38;5058223;28;45444;-52
2021/10/02 02:00:27;;;;;;;;;4.67;4.67;;;;;19.84;53.67;101056.69;5058199;28;45238;-58
2021/10/02 02:02:56;;;;;;;;;4.67;3.33;;;;;19.86;53.59;101057.56;5058285;28;45360;-57
2021/10/02 02:05:26;;;;;;;;;3.00;3.00;;;;;19.85;53.74;101047.78;5058664;28;45421;-62
2021/10/02 02:07:57;;;;;;;;;3.00;3.00;;;;;19.84;53.62;101046.88;5058374;28;47246;-48
2021/10/02 02:10:25;;;;;;;;;4.00;3.67;;;;;19.84;53.52;101041.53;5058371;28;45415;-47
2021/10/02 02:12:53;;;;;;;;;3.00;3.00;;;;;19.84;53.41;101056.69;5058115;28;45233;-49
2021/10/02 02:15:20;;;;;;;;;3.67;3.00;;;;;19.85;53.44;101047.78;5058786;28;45426;-57
2021/10/02 02:17:51;;;;;;;;;3.00;3.00;;;;;19.84;53.62;101044.22;5058096;28;47108;-46
2021/10/02 02:20:27;;;;;;;;;4.00;2.00;;;;;19.84;53.51;101036.22;5058298;28;45161;-55
2021/10/02 02:22:53;;;;;;;;;3.00;3.00;;;;;19.83;53.66;101042.47;5058323;28;45230;-49
2021/10/02 02:25:18;;;;;;;;;5.00;3.67;;;;;19.83;53.61;101041.56;5058266;28;45326;-50
2021/10/02 02:27:44;;;;;;;;;2.33;2.33;;;;;19.83;53.45;101023.78;5058190;28;46267;-58
2021/10/02 02:30:11;;;;;;;;;3.67;3.33;;;;;19.83;53.52;101022.91;5058169;28;45362;-45
2021/10/02 02:32:38;;;;;;;;;4.00;4.00;;;;;19.83;53.59;101028.25;5057800;28;45519;-48
2021/10/02 02:35:04;;;;;;;;;3.00;2.00;;;;;19.82;53.70;101023.81;5058304;28;45238;-56
2021/10/02 02:37:29;;;;;;;;;2.67;2.67;;;;;19.83;53.36;101014.91;5057923;28;46449;-60
2021/10/02 02:39:54;;;;;;;;;4.00;4.00;;;;;19.83;53.51;101012.25;5057848;28;45274;-51
2021/10/02 02:42:20;;;;;;;;;4.00;3.00;;;;;19.83;53.65;100994.44;5058234;28;45693;-45
2021/10/02 02:44:45;;;;;;;;;3.00;3.00;;;;;19.83;53.54;100994.44;5058378;28;45264;-45
2021/10/02 02:47:16;;;;;;;;;4.67;3.67;;;;;19.83;53.30;101006.91;5058015;28;47142;-45
2021/10/02 02:50:35;;;;;;;;;4.00;3.67;;;;;19.83;53.60;101001.56;5057953;28;45401;-47
2021/10/02 02:53:30;;;;;;;;;4.00;4.00;;;;;19.83;53.41;100996.22;5015832;28;45292;-59
2021/10/02 02:56:22;;;;;;;;;4.33;4.00;;;;;19.82;53.33;100994.50;5015719;28;45314;-54
2021/10/02 02:58:54;;;;;;;;;5.33;3.00;;;;;19.82;53.57;100991.81;5001760;28;47067;-55
2021/10/02 03:01:22;;;;;;;;;3.67;2.33;;;;;19.82;53.30;100975.81;5015343;28;45474;-59
2021/10/02 03:03:50;;;;;;;;;4.00;3.00;;;;;19.81;53.03;100982.94;5015576;28;45287;-45
2021/10/02 03:06:18;;;;;;;;;3.67;3.67;;;;;19.81;53.35;100990.94;5015758;28;45257;-46
2021/10/02 03:08:46;;;;;;;;;4.33;3.33;;;;;19.81;53.31;100990.94;5015401;28;47314;-45
2021/10/02 03:11:13;;;;;;;;;3.67;3.67;;;;;19.81;53.43;100990.94;5015325;28;45455;-46
2021/10/02 03:13:41;;;;;;;;;3.00;3.00;;;;;19.82;53.38;100973.16;5015495;28;45406;-55
2021/10/02 03:16:12;;;;;;;;;3.00;3.00;;;;;19.81;53.52;100950.03;5018919;28;45308;-51
2021/10/02 03:18:44;;;;;;;;;5.67;4.00;;;;;19.81;53.38;100956.25;5018772;28;45387;-53
2021/10/02 03:21:11;;;;;;;;;2.00;2.00;;;;;19.81;53.62;100974.03;5018839;28;45506;-50
2021/10/02 03:23:38;;;;;;;;;4.33;3.00;;;;;19.82;53.59;100989.16;5018952;28;45587;-47
2021/10/02 03:26:04;;;;;;;;;3.00;3.00;;;;;19.81;53.36;100985.59;5019194;28;45582;-50
2021/10/02 03:28:31;;;;;;;;;3.00;3.00;;;;;19.82;53.46;100983.81;5043646;28;47288;-50
2021/10/02 03:30:57;;;;;;;;;3.00;3.00;;;;;19.82;53.53;100971.34;5061112;28;45315;-55
2021/10/02 03:33:24;;;;;;;;;3.33;2.33;;;;;19.83;53.37;100958.88;5060824;28;45438;-63
2021/10/02 03:35:49;;;;;;;;;3.67;2.67;;;;;19.80;53.53;100943.81;5060959;28;45396;-52
2021/10/02 03:38:15;;;;;;;;;3.33;3.00;;;;;19.81;53.45;100934.03;5060673;28;46973;-45
2021/10/02 03:40:40;;;;;;;;;3.67;3.67;;;;;19.82;53.26;100935.81;5060781;28;45434;-62
2021/10/02 03:43:06;;;;;;;;;2.33;2.33;;;;;19.81;53.21;100934.91;5060950;28;45352;-54
2021/10/02 03:45:36;;;;;;;;;2.00;2.00;;;;;19.79;53.52;100937.63;5060961;28;45302;-62
2021/10/02 03:48:02;;;;;;;;;2.00;2.00;;;;;19.80;53.37;100935.81;5060489;28;46291;-45
2021/10/02 03:50:27;;;;;;;;;6.00;3.00;;;;;19.80;53.29;100935.81;5060747;28;45290;-54
2021/10/02 03:52:53;;;;;;;;;3.67;3.67;;;;;19.80;53.23;100922.47;5060809;28;45680;-49
2021/10/02 03:55:18;;;;;;;;;2.00;2.00;;;;;19.79;53.43;100921.63;5060870;28;45258;-58
2021/10/02 03:57:44;;;;;;;;;3.33;2.67;;;;;19.80;53.43;100917.13;5060328;28;46050;-54
2021/10/02 04:00:10;;;;;;;;;2.33;2.00;;;;;19.79;53.29;100921.63;5060574;28;45281;-61
2021/10/02 04:02:36;;;;;;;;;2.00;2.00;;;;;19.79;53.39;100929.63;5060439;28;45369;-48
2021/10/02 04:05:03;;;;;;;;;3.67;3.00;;;;;19.79;53.51;100937.63;5060775;28;45286;-59
2021/10/02 04:07:29;;;;;;;;;3.33;3.00;;;;;19.79;53.45;100932.28;5060111;28;47149;-50
2021/10/02 04:09:54;;;;;;;;;5.00;3.67;;;;;19.80;53.50;100911.81;5060285;28;45568;-46
2021/10/02 04:12:20;;;;;;;;;4.33;3.33;;;;;19.80;53.36;100911.81;5060110;28;45283;-47
2021/10/02 04:14:47;;;;;;;;;3.67;3.67;;;;;19.79;53.46;100896.72;5060693;28;45441;-46
2021/10/02 04:17:13;;;;;;;;;3.00;3.00;;;;;19.79;53.29;100910.94;5060093;28;46482;-57
2021/10/02 04:19:39;;;;;;;;;3.00;3.00;;;;;19.79;53.40;100912.72;5060187;28;45323;-56
2021/10/02 04:22:05;;;;;;;;;2.67;2.67;;;;;19.78;53.27;100913.63;5060257;28;45338;-54
2021/10/02 04:24:30;;;;;;;;;4.00;4.00;;;;;19.79;53.23;100920.72;5060241;28;45383;-49
2021/10/02 04:26:58;;;;;;;;;5.33;3.67;;;;;19.79;53.45;100918.94;5060089;28;46046;-45
2021/10/02 04:29:25;;;;;;;;;4.67;4.00;;;;;19.78;53.24;100914.50;5059957;28;45257;-58
2021/10/02 04:31:51;;;;;;;;;4.33;4.00;;;;;19.78;53.15;100909.16;5059771;28;45282;-54
2021/10/02 04:34:16;;;;;;;;;4.33;4.33;;;;;19.78;53.29;100909.16;5060346;28;45165;-53
2021/10/02 04:36:42;;;;;;;;;4.00;4.00;;;;;19.78;53.31;100909.16;5059751;28;45964;-47
2021/10/02 04:39:07;;;;;;;;;4.00;4.00;;;;;19.79;53.31;100908.28;5060049;28;45215;-52
2021/10/02 04:41:32;;;;;;;;;5.00;5.00;;;;;19.79;53.54;100918.06;5060137;28;45458;-59
2021/10/02 04:43:58;;;;;;;;;6.00;4.33;;;;;19.78;53.56;100914.50;5060031;28;45423;-62
2021/10/02 04:46:23;;;;;;;;;5.00;4.00;;;;;19.78;53.36;100909.16;5059819;28;45930;-48
2021/10/02 04:48:49;;;;;;;;;6.00;4.00;;;;;19.78;53.45;100890.50;5059590;28;45272;-59
2021/10/02 04:51:14;;;;;;;;;4.00;4.00;;;;;19.79;53.38;100902.94;5059912;28;45285;-52
2021/10/02 04:53:40;;;;;;;;;2.67;2.67;;;;;19.78;53.54;100910.94;5060157;28;45365;-53
2021/10/02 04:56:09;;;;;;;;;3.00;3.00;;;;;19.78;53.48;100911.84;5059483;28;46241;-45
2021/10/02 04:58:36;;;;;;;;;5.00;4.00;;;;;19.78;53.57;100903.84;5059430;28;45484;-48
2021/10/02 05:01:06;;;;;;;;;4.00;3.00;;;;;19.78;53.44;100914.50;5059388;28;45251;-62
2021/10/02 05:03:33;;;;;;;;;4.00;4.00;;;;;19.78;53.32;100908.28;5059559;28;45393;-58
2021/10/02 05:05:59;;;;;;;;;4.33;3.33;;;;;19.77;53.60;100912.75;5059261;28;46252;-56
2021/10/02 05:08:25;;;;;;;;;5.00;4.00;;;;;19.77;53.65;100920.75;5059400;28;45288;-56
2021/10/02 05:10:50;;;;;;;;;4.00;4.00;;;;;19.78;53.56;100934.97;5059456;28;45215;-46
2021/10/02 05:13:15;;;;;;;;;4.00;4.00;;;;;19.78;53.57;100930.50;5059602;28;45429;-49
2021/10/02 05:15:41;;;;;;;;;7.33;4.33;;;;;19.77;53.40;100934.09;5059085;28;46154;-59
2021/10/02 05:18:07;;;;;;;;;6.00;4.00;;;;;19.78;53.62;100927.84;5059442;28;45355;-54
2021/10/02 05:20:32;;;;;;;;;5.00;4.33;;;;;19.77;53.63;100917.22;5059345;28;45314;-57
2021/10/02 05:22:58;;;;;;;;;4.00;4.00;;;;;19.77;53.46;100909.22;5059386;28;45565;-47
2021/10/02 05:25:23;;;;;;;;;4.00;3.00;;;;;19.76;53.55;100899.44;5058974;28;45472;-47
2021/10/02 05:27:49;;;;;;;;;4.67;3.33;;;;;19.75;53.40;100885.25;5059235;28;45234;-50
2021/10/02 05:30:14;;;;;;;;;4.33;4.33;;;;;19.75;53.60;100887.91;5059121;28;45272;-53
2021/10/02 05:32:40;;;;;;;;;5.33;4.00;;;;;19.76;53.44;100883.44;5058964;28;45978;-48
2021/10/02 05:35:06;;;;;;;;;4.67;4.67;;;;;19.75;53.55;100871.91;5059252;28;45371;-59
2021/10/02 05:37:31;;;;;;;;;4.33;3.00;;;;;19.75;53.65;100868.34;5058445;28;45394;-58
2021/10/02 05:39:57;;;;;;;;;7.33;4.00;;;;;19.74;53.71;100872.78;5058912;28;45276;-62
2021/10/02 05:42:22;;;;;;;;;4.67;4.67;;;;;19.76;53.64;100864.75;5059194;28;45458;-50
2021/10/02 05:44:47;;;;;;;;;6.33;5.00;;;;;19.75;53.70;100861.25;5058727;28;46094;-45
2021/10/02 05:47:13;;;;;;;;;6.00;5.00;;;;;19.75;53.71;100850.56;5058853;28;45260;-59
2021/10/02 05:49:39;;;;;;;;;6.00;4.67;;;;;19.74;53.63;100847.91;5059046;28;45340;-46
2021/10/02 05:52:06;;;;;;;;;4.00;4.00;;;;;19.74;53.70;100851.47;5059118;28;45549;-52
2021/10/02 05:54:31;;;;;;;;;4.67;4.00;;;;;19.75;53.54;100847.00;5058525;28;46373;-51
2021/10/02 05:56:57;;;;;;;;;4.67;4.67;;;;;19.74;53.70;100843.47;5058667;28;45161;-48
2021/10/02 05:59:22;;;;;;;;;4.00;4.00;;;;;19.76;53.63;100856.75;5058835;28;45198;-53
2021/10/02 06:01:47;;;;;;;;;5.67;3.67;;;;;19.75;53.71;100861.25;5058827;28;45528;-47
2021/10/02 06:04:13;;;;;;;;;3.00;3.00;;;;;19.75;53.72;100855.00;5058247;28;46098;-45
2021/10/02 06:06:38;;;;;;;;;4.33;4.33;;;;;19.75;53.72;100858.56;5058524;28;45230;-53
2021/10/02 06:09:03;;;;;;;;;6.33;4.00;;;;;19.77;53.56;100866.53;5058582;28;45192;-51
2021/10/02 06:11:29;;;;;;;;;5.33;3.67;;;;;19.75;53.72;100852.34;5058589;28;45416;-46
2021/10/02 06:13:54;;;;;;;;;5.00;3.33;;;;;19.76;53.79;100854.09;5058532;28;47239;-63
2021/10/02 06:16:20;;;;;;;;;3.00;3.00;;;;;19.76;53.66;100864.75;5058275;28;45444;-53
2021/10/02 06:18:46;;;;;;;;;2.00;2.00;;;;;19.75;53.65;100871.00;5057365;28;45579;-52
2021/10/02 06:21:14;;;;;;;;;3.00;3.00;;;;;19.74;53.73;100870.13;5049872;28;45775;-57
2021/10/02 06:23:40;;;;;;;;;4.00;2.00;;;;;19.73;53.36;100862.16;5049544;28;46102;-68
2021/10/02 06:26:06;;;;;;;;;2.00;2.00;;;;;19.74;53.50;100862.13;5050148;28;45528;-56
2021/10/02 06:28:32;;;;;;;;;1.00;1.00;;;;;19.74;53.59;100853.25;5048239;28;45414;-60
2021/10/02 06:30:57;;;;;;;;;1.67;1.67;;;;;19.75;53.50;100847.91;5057238;28;45231;-56
2021/10/02 06:33:23;;;;;;;;;1.33;1.33;;;;;19.74;53.56;100832.78;5056647;28;47136;-48
2021/10/02 06:35:48;;;;;;;;;2.00;2.00;;;;;19.74;53.48;100832.78;5057826;28;45381;-45
2021/10/02 06:38:15;;;;;;;;;3.00;2.00;;;;;19.75;53.39;100839.00;5057690;28;45311;-51
2021/10/02 06:40:43;;;;;;;;;2.33;2.33;;;;;19.75;53.27;100847.91;5057760;28;45425;-45
2021/10/02 06:43:11;;;;;;;;;2.00;2.00;;;;;19.75;53.55;100847.91;5057739;28;45279;-50
2021/10/02 06:45:37;;;;;;;;;1.00;1.00;;;;;19.75;53.43;100845.22;5057839;28;45381;-48
2021/10/02 06:48:04;;;;;;;;;3.00;3.00;;;;;19.76;53.26;100846.97;5057734;28;45434;-53
2021/10/02 06:50:30;;;;;;;;;2.67;2.00;;;;;19.75;53.28;100852.34;5057060;27;45434;-48
2021/10/02 06:52:55;;;;;;;;;1.00;1.00;;;;;19.75;53.34;100858.56;5057552;28;46090;-63
2021/10/02 06:55:21;;;;;;;;;2.33;2.33;;;;;19.76;53.23;100862.97;5057655;28;45359;-62
2021/10/02 06:57:47;;;;;;;;;2.00;2.00;;;;;19.77;53.48;100859.41;5057721;28;45290;-53
2021/10/02 07:00:13;;;;;;;;;2.00;2.00;;;;;19.76;53.58;100857.66;5057907;28;45313;-61
2021/10/02 07:02:43;;;;;;;;;4.67;3.00;;;;;19.76;53.49;100846.97;5057431;28;45401;-43
2021/10/02 07:05:11;;;;;;;;;4.00;3.00;;;;;19.78;53.47;100841.59;5057618;28;45224;-53
2021/10/02 07:07:37;;;;;;;;;2.00;2.00;;;;;19.77;53.48;100843.41;5057685;28;45350;-54
2021/10/02 07:10:04;;;;;;;;;3.67;3.00;;;;;19.78;53.63;100842.50;5057704;28;45487;-52
2021/10/02 07:12:29;;;;;;;;;3.00;3.00;;;;;19.80;53.92;100847.78;5057530;28;45333;-56
2021/10/02 07:14:55;;;;;;;;;3.33;3.33;;;;;19.80;54.07;100855.78;5057406;28;45229;-54
2021/10/02 07:17:20;;;;;;;;;4.67;2.00;;;;;19.81;54.29;100859.34;5057281;28;45328;-52
2021/10/02 07:19:45;;;;;;;;;3.67;3.67;;;;;19.83;54.67;100863.75;5057701;28;45378;-51
2021/10/02 07:22:11;;;;;;;;;3.33;1.67;;;;;19.85;54.92;100861.03;5057198;28;46074;-46
2021/10/02 07:24:37;;;;;;;;;4.00;4.00;;;;;19.85;55.04;100858.38;5056955;28;45195;-48
2021/10/02 07:27:03;;;;;;;;;2.00;2.00;;;;;19.86;55.31;100844.16;5057278;28;45468;-49
2021/10/02 07:29:28;;;;;;;;;3.00;3.00;;;;;19.86;55.14;100839.66;5057333;28;45505;-57
2021/10/02 07:31:53;;;;;;;;;6.67;2.33;;;;;19.84;55.39;100827.28;5056490;28;46165;-54
2021/10/02 07:34:19;;;;;;;;;11.33;6.00;;;;;19.84;57.66;100825.47;5057358;28;45208;-48
2021/10/02 07:36:44;;;;;;;;;8.33;5.00;;;;;19.84;58.01;100822.81;5057212;28;45251;-44
2021/10/02 07:39:10;;;;;;;;;8.00;5.00;;;;;19.86;58.18;100814.81;5057293;28;45409;-49
2021/10/02 07:41:43;;;;;;;;;4.00;3.00;;;;;19.87;58.42;100808.53;5057019;28;46157;-47
2021/10/02 07:44:13;;;;;;;;;2.00;2.00;;;;;19.88;58.44;100808.50;5056657;28;45266;-49
2021/10/02 07:46:48;;;;;;;;;4.00;3.00;;;;;19.90;57.90;100805.81;5056422;28;45336;-48
2021/10/02 07:49:16;;;;;;;;;9.67;4.00;;;;;19.90;58.10;100800.50;5056728;28;45449;-44
2021/10/02 07:51:43;;;;;;;;;5.00;5.00;;;;;19.92;58.25;100792.44;5056534;28;46310;-47
2021/10/02 07:54:09;;;;;;;;;8.00;3.00;;;;;19.93;59.13;100800.41;5056707;28;45291;-50
2021/10/02 07:56:36;;;;;;;;;4.67;4.00;;;;;19.94;59.48;100802.19;5056647;28;45580;-46
2021/10/02 07:59:05;;;;;;;;;3.00;2.67;;;;;19.94;59.57;100798.63;5056616;28;45425;-50
2021/10/02 08:01:31;;;;;;;;;3.67;3.67;;;;;19.95;59.71;100798.59;5058735;28;46349;-47
2021/10/02 08:03:57;;;;;;;;;4.00;3.33;;;;;19.96;59.81;100804.81;5060165;28;45223;-47
2021/10/02 08:06:22;;;;;;;;;2.00;2.00;;;;;19.96;59.66;100799.47;5060584;28;45237;-54
2021/10/02 08:08:51;;;;;;;;;2.00;2.00;;;;;19.97;59.72;100802.09;5060626;28;45235;-47
2021/10/02 08:11:16;;;;;;;;;6.67;2.00;;;;;19.98;59.56;100793.19;5060269;28;47250;-48
2021/10/02 08:13:41;;;;;;;;;4.00;2.33;;;;;19.99;59.24;100791.38;5060159;28;45363;-48
2021/10/02 08:16:08;;;;;;;;;3.00;3.00;;;;;20.00;59.43;100783.38;5060090;28;45492;-45
2021/10/02 08:18:38;;;;;;;;;4.00;3.00;;;;;20.01;59.15;100779.78;5060066;28;45382;-44
2021/10/02 08:21:05;;;;;;;;;6.33;2.67;;;;;20.03;59.03;100774.41;5059790;28;46267;-45
2021/10/02 08:23:35;;;;;;;;;4.00;2.00;;;;;20.05;58.97;100767.25;5059891;28;45336;-44
2021/10/02 08:26:02;;;;;;;;;3.67;3.00;;;;;20.07;58.60;100775.25;5059916;28;45333;-43
2021/10/02 08:28:30;;;;;;;;;3.00;2.67;;;;;20.07;58.31;100769.91;5058819;28;45404;-50
2021/10/02 08:30:58;;;;;;;;;3.33;2.00;;;;;20.06;58.15;100762.78;5059562;28;46418;-41
2021/10/02 08:33:24;;;;;;;;;4.67;4.00;;;;;20.09;58.20;100760.09;5059453;28;45375;-44
2021/10/02 08:35:49;;;;;;;;;5.33;2.00;;;;;20.11;58.18;100756.50;5059841;28;45371;-51
2021/10/02 08:38:15;;;;;;;;;4.00;3.00;;;;;20.15;58.46;100759.97;5060032;28;45395;-48
2021/10/02 08:40:41;;;;;;;;;7.67;3.33;;;;;20.16;58.96;100745.69;5059523;28;46218;-47
2021/10/02 08:43:11;;;;;;;;;7.00;4.00;;;;;20.18;58.88;100749.22;5059631;28;45228;-46
2021/10/02 08:45:37;;;;;;;;;4.00;3.00;;;;;20.19;59.20;100742.97;5059386;28;45391;-43
2021/10/02 08:48:03;;;;;;;;;7.67;3.67;;;;;20.19;59.29;100748.31;5059708;28;45421;-47
2021/10/02 08:50:29;;;;;;;;;4.67;3.33;;;;;20.19;59.31;100737.63;5059405;28;46970;-51
2021/10/02 08:52:55;;;;;;;;;5.00;4.00;;;;;20.21;59.29;100730.47;5059380;28;45437;-55
2021/10/02 08:55:22;;;;;;;;;4.00;3.00;;;;;20.21;59.42;100741.16;5059560;28;45257;-54
2021/10/02 08:57:49;;;;;;;;;5.00;3.00;;;;;20.21;59.35;100735.81;5059496;28;45375;-44
2021/10/02 09:00:19;;;;;;;;;4.33;3.00;;;;;20.22;59.13;100747.38;5058904;28;46309;-44
2021/10/02 09:02:45;;;;;;;;;3.33;2.00;;;;;20.22;58.88;100737.56;5059469;28;45322;-44
2021/10/02 09:05:13;;;;;;;;;3.00;3.00;;;;;20.23;58.71;100725.09;5059454;28;45353;-51
2021/10/02 09:07:39;;;;;;;;;2.33;2.33;;;;;20.24;58.54;100721.53;5059774;28;45811;-49
2021/10/02 09:10:10;;;;;;;;;3.33;3.00;;;;;20.24;58.44;100727.72;5059112;28;46022;-44
2021/10/02 09:12:38;;;;;;;;;4.33;3.00;;;;;20.23;58.24;100720.63;5058247;28;45350;-45
2021/10/02 09:15:05;;;;;;;;;3.00;2.00;;;;;20.25;58.19;100725.94;5059491;28;45241;-50
2021/10/02 09:17:31;;;;;;;;;5.00;3.00;;;;;20.24;57.75;100708.19;5059299;28;45369;-44
2021/10/02 09:19:57;;;;;;;;;4.00;3.00;;;;;20.25;57.64;100707.25;5058904;28;46316;-58
2021/10/02 09:22:22;;;;;;;;;5.33;2.00;;;;;20.24;57.48;100682.34;5059073;28;45342;-49
2021/10/02 09:24:49;;;;;;;;;4.00;2.33;;;;;20.24;57.52;100687.69;5058864;28;45330;-44
2021/10/02 09:27:25;;;;;;;;;5.00;3.00;;;;;20.24;57.55;100684.16;5059313;28;45362;-45
2021/10/02 09:29:55;;;;;;;;;2.33;2.33;;;;;20.24;57.55;100681.50;5058873;28;47233;-45
2021/10/02 09:32:38;;;;;;;;;2.67;2.33;;;;;20.23;56.81;100669.94;5058466;28;45379;-46
2021/10/02 09:35:12;;;;;;;;;5.33;3.00;;;;;20.24;57.20;100665.47;5058892;28;45295;-48
2021/10/02 09:37:41;;;;;;;;;4.00;2.33;;;;;20.23;57.14;100645.03;5074431;28;45519;-57
2021/10/02 09:40:11;;;;;;;;;2.67;2.67;;;;;20.25;57.18;100648.53;5058357;28;47223;-49
2021/10/02 09:42:42;;;;;;;;;3.33;3.33;;;;;20.23;56.97;100627.22;5058680;28;45273;-51
2021/10/02 09:45:10;;;;;;;;;4.00;3.33;;;;;20.23;56.88;100626.34;5058649;28;45320;-53
2021/10/02 09:47:37;;;;;;;;;3.00;2.00;;;;;20.23;56.67;100615.66;5058956;28;45393;-50
2021/10/02 09:50:15;;;;;;;;;4.67;2.00;;;;;20.22;56.78;100604.09;5058517;28;46190;-56
2021/10/02 09:52:54;;;;;;;;;5.67;2.00;;;;;20.21;56.68;100602.38;5058415;28;45594;-45
2021/10/02 09:55:22;;;;;;;;;3.00;2.33;;;;;20.21;56.51;100590.81;5058684;28;45206;-56
2021/10/02 09:57:50;;;;;;;;;3.67;3.00;;;;;20.19;56.51;100569.50;5058996;28;45405;-45
2021/10/02 10:00:19;;;;;;;;;3.00;2.00;;;;;20.20;56.42;100567.72;5058293;28;47042;-45
2021/10/02 10:02:45;;;;;;;;;4.67;3.00;;;;;20.20;56.27;100557.03;5058365;28;45351;-53
2021/10/02 10:05:13;;;;;;;;;3.00;3.00;;;;;20.19;56.10;100553.50;5058452;28;45284;-49
2021/10/02 10:07:39;;;;;;;;;2.33;2.00;;;;;20.18;56.05;100538.38;5058359;28;45200;-43
2021/10/02 10:10:14;;;;;;;;;4.00;3.00;;;;;20.17;56.27;100546.44;5058507;27;46319;-58
2021/10/02 10:12:42;;;;;;;;;4.00;2.33;;;;;20.16;55.90;100536.69;5058270;28;45370;-52
2021/10/02 10:15:27;;;;;;;;;5.00;4.00;;;;;20.14;56.09;100528.69;5058506;28;45337;-50
2021/10/02 10:17:53;;;;;;;;;9.00;9.00;;;;;20.13;55.93;100519.84;5058461;28;45244;-54
2021/10/02 10:20:28;;;;;;;;;9.67;9.33;;;;;20.15;55.81;100526.91;5058097;28;47191;-52
2021/10/02 10:22:58;;;;;;;;;13.33;10.67;;;;;20.13;55.75;100513.63;5058049;28;45479;-42
2021/10/02 10:25:24;;;;;;;;;9.00;9.00;;;;;20.13;55.51;100508.28;5058076;28;45453;-58
2021/10/02 10:27:49;;;;;;;;;11.33;10.67;;;;;20.12;55.73;100491.38;5058292;28;45486;-46
2021/10/02 10:30:21;;;;;;;;;9.33;8.33;;;;;20.12;55.79;100488.72;5058044;28;47169;-44
2021/10/02 10:33:08;;;;;;;;;14.33;12.33;;;;;20.11;55.59;100480.75;5057704;28;45189;-53
2021/10/02 10:35:40;;;;;;;;;8.33;6.67;;;;;20.10;55.79;100492.34;5058111;28;45228;-53
2021/10/02 10:38:09;;;;;;;;;3.33;3.33;;;;;20.09;55.66;100490.59;5058034;27;45197;-59
2021/10/02 10:40:35;;;;;;;;;6.00;4.00;;;;;20.08;55.63;100500.41;5056741;28;46316;-49
2021/10/02 10:43:01;;;;;;;;;4.00;4.00;;;;;20.10;55.61;100495.00;5057537;28;45354;-48
2021/10/02 10:45:27;;;;;;;;;7.67;4.67;;;;;20.10;55.49;100503.00;5058099;28;45298;-59
2021/10/02 10:47:53;;;;;;;;;6.00;6.00;;;;;20.09;55.65;100498.59;5058128;28;45372;-44
2021/10/02 10:50:19;;;;;;;;;7.33;5.33;;;;;20.10;55.74;100493.22;5057495;28;46174;-54
2021/10/02 10:52:46;;;;;;;;;6.67;6.67;;;;;20.10;55.65;100487.00;5057494;28;45338;-56
2021/10/02 10:55:21;;;;;;;;;8.33;8.00;;;;;20.10;55.45;100468.31;5057569;28;45157;-57
2021/10/02 10:57:48;;;;;;;;;9.67;8.00;;;;;20.09;55.62;100464.81;5057392;28;45247;-43
2021/10/02 11:00:37;;;;;;;;;7.00;7.00;;;;;20.08;55.60;100452.38;5057133;28;47014;-61
2021/10/02 11:03:04;;;;;;;;;7.00;7.00;;;;;20.09;55.40;100450.59;5057451;28;45326;-53
2021/10/02 11:05:43;;;;;;;;;13.00;11.33;;;;;20.09;55.73;100450.59;5057617;28;45365;-57
2021/10/02 11:08:13;;;;;;;;;33.00;29.00;;;;;20.09;55.29;100450.59;5057288;28;45230;-55
2021/10/02 11:10:44;;;;;;;;;26.33;25.67;;;;;20.08;55.53;100440.78;5057131;28;45321;-48
2021/10/02 11:13:12;;;;;;;;;34.67;32.00;;;;;20.08;55.26;100430.09;5057192;28;45326;-54
2021/10/02 11:15:38;;;;;;;;;28.33;26.00;;;;;20.07;55.50;100428.38;5057430;28;45320;-54
2021/10/02 11:18:03;;;;;;;;;27.00;20.33;;;;;20.06;55.54;100426.59;5057475;28;45301;-44
2021/10/02 11:20:29;;;;;;;;;16.67;15.00;;;;;20.06;55.53;100424.81;5057285;28;47001;-51
2021/10/02 11:23:50;;;;;;;;;18.67;17.67;;;;;20.06;55.60;100415.94;5057056;28;45246;-56
2021/10/02 11:26:25;;;;;;;;;31.33;27.33;;;;;20.04;55.43;100407.97;5057434;28;45389;-54
2021/10/02 11:29:00;;;;;;;;;33.00;31.00;;;;;20.02;55.37;100413.38;5057560;28;45345;-56
2021/10/02 11:31:26;;;;;;;;;38.00;34.25;;;;;20.02;55.58;100405.34;5056689;28;46419;-56
2021/10/02 11:33:54;;;;;;;;;33.33;29.33;;;;;20.02;55.53;100399.13;5057219;28;45468;-47
2021/10/02 11:36:31;;;;;;;;;30.33;27.00;;;;;20.01;55.51;100395.59;5059497;28;45323;-59
2021/10/02 11:39:12;;;;;;;;;29.67;26.33;;;;;20.01;55.49;100381.38;5059378;28;45266;-47
2021/10/02 11:41:41;;;;;;;;;26.67;22.33;;;;;20.00;55.47;100376.97;5060742;28;46216;-46
2021/10/02 11:44:07;;;;;;;;;23.00;21.00;;;;;19.99;55.57;100370.75;5060246;28;45160;-43
2021/10/02 11:46:33;;;;;;;;;28.00;21.33;;;;;19.99;55.34;100354.75;5060817;28;45231;-46
2021/10/02 11:49:16;;;;;;;;;17.67;17.00;;;;;19.98;55.69;100342.34;5060887;28;45461;-45
2021/10/02 11:51:43;;;;;;;;;24.00;18.00;;;;;19.99;55.46;100349.41;5060350;28;46897;-47
2021/10/02 11:54:08;;;;;;;;;18.67;16.00;;;;;19.99;55.82;100352.06;5060323;28;45261;-44
2021/10/02 11:56:35;;;;;;;;;23.00;20.00;;;;;19.98;55.82;100331.66;5060440;28;45905;-55
2021/10/02 11:59:03;;;;;;;;;19.67;18.00;;;;;19.99;55.81;100317.38;5060613;28;45362;-50
2021/10/02 12:01:30;;;;;;;;;19.33;15.33;;;;;19.98;55.59;100318.31;5059929;28;46544;-47
2021/10/02 12:03:58;;;;;;;;;23.00;17.67;;;;;19.98;55.67;100313.00;5060223;28;45385;-46
2021/10/02 12:06:24;;;;;;;;;18.00;15.00;;;;;19.98;55.65;100305.00;5060298;28;45220;-48
2021/10/02 12:08:50;;;;;;;;;15.00;14.00;;;;;19.98;55.50;100288.09;5060332;28;45343;-46
2021/10/02 12:11:16;;;;;;;;;16.67;13.33;;;;;19.99;55.36;100281.81;5059768;28;46204;-48
2021/10/02 12:13:54;;;;;;;;;15.33;12.33;;;;;19.98;55.44;100272.97;5060267;28;45342;-49
2021/10/02 12:16:23;;;;;;;;;15.33;11.33;;;;;19.97;55.33;100268.53;5060341;28;45303;-50
2021/10/02 12:18:55;;;;;;;;;15.67;14.00;;;;;19.97;55.38;100265.88;5060488;28;45456;-46
2021/10/02 12:21:29;;;;;;;;;16.00;13.00;;;;;19.97;55.22;100263.22;5058787;28;47218;-46
2021/10/02 12:24:16;;;;;;;;;12.00;11.33;;;;;19.95;55.17;100270.38;5059906;28;45467;-45
2021/10/02 12:26:58;;;;;;;;;10.67;10.67;;;;;19.95;55.25;100258.84;5060114;28;45220;-45
2021/10/02 12:29:33;;;;;;;;;15.67;10.67;;;;;19.93;55.23;100261.56;5060202;28;45298;-49